ジュネーヴ の空港の天気 - METARとTAF

ジュネーヴ・コアントラン国際空港 ( LSGG / GVA ) - スイス ジュネーヴ
飛行場実況気象(Metar)
観測時間02/21 18:50 CET (02/21 17:50 UTC)
風向・風速北 1m/s
視程10km以上
天気現象
なし
気温7℃
湿度66%
気圧1029hPa
METARLSGG 211750Z 35002KT CAVOK 07/01 Q1029 NOSIG
過去の天気等 Google飛行場航空写真 Wunderground天気予報

過去48時間のMETAR

飛行場予報(TAF)
発表時間: 2/21 18:25 CET (2/21 17:25 UTC)
予報対象時間: 21日19時 CET ~ 23日1時 CET
風向・風速不定 2m/s
視程10km以上
なし
22日12時 CET ~ 22日14時 CET に徐々に
風向・風速北北東 4m/s
視程10km以上
少しの雲 雲底高度 1520m
TAF LSGG 211725Z 2118/2224 VRB03KT CAVOK TX13/2215Z TNM02/2206Z
BECMG 2211/2213 03007KT 9999 FEW050